KPTB/PTB METAR and TAF weather

Enter ICAO airport designator
Station Type Date Time Source
KPTB METAR 2018/12/19 03:15 UTC NOAA

KPTB 190315Z AUTO 00000KT 10SM CLR M04/M05 A3020 RMK AO2 T10361051


Station Type Date Time Source
KPTB Decoded METAR 2018/12/19 03:15 UTC NOAA

Petersburg, Dinwiddie County Airport, VA, United States (KPTB) 37-11N 077-31W
Dec 18, 2018 - 10:15 PM EST / 2018.12.19 0315 UTC
Wind: Calm:0
Visibility: 10 mile(s):0
Sky conditions: clear
Temperature: 25.5 F (-3.6 C)
Dew Point: 22.8 F (-5.1 C)
Relative Humidity: 89%
Pressure (altimeter): 30.2 in. Hg (1022 hPa)
ob: KPTB 190315Z AUTO 00000KT 10SM CLR M04/M05 A3020 RMK AO2 T10361051
cycle: 3

Station Type Date Time Source
KPTB TAF UTC NOAA

Error!


Example: see airport list